Knossos Palace — SYQO — position and weather

sailwx.info

Track history (hours):
 
Tides and Currents Weather Stations Pressure Air Temp Water Temp Dewpoint Dewpoint Depression Visibility Wind Speed Wind Dir Waves Ship Positions

Knossos Palace

Last reported at 2017-Apr-27 01:00 UTC. Time now 2017-Apr-27 18:54 UTC.
Position N 36°00' E 024°42'.

Length 214 m; beam 26.4 m; draft 7.3 m.

Type: Ship. MMSI: 237641000.

Wind at 5 knots

Barometer 1018.5 mb
Air temperature 17.0 ° C
Visibility: greater than 10.8 NM
Dewpoint 16.2 ° C
Water temperature 18.0 ° C

Date/timePositionNaut miles runAvg speedWind from/ knotsBaromVisibWave heightAir tempDewpointWater temp
2017-Apr-27 01:00N 36°00' E 024°42'6519.5 1018.510.8 17.016.218.0
2017-Apr-26 21:39N 36°58' E 024°04'1819.2
2017-Apr-26 20:44N 37°14' E 023°56'519.9
2017-Apr-26 20:30N 37°18' E 023°53'1019.7
2017-Apr-26 20:01N 37°27' E 023°49'1019.0
2017-Apr-26 19:30N 37°36' E 023°44'1019.4
2017-Apr-26 19:01N 37°45' E 023°39'816.5
2017-Apr-26 18:31N 37°53' E 023°37'4 7.9
2017-Apr-26 18:00N 37°57' E 023°38'0 0.0
2017-Apr-26 17:30N 37°57' E 023°38'0 0.0
2017-Apr-26 16:58N 37°57' E 023°38'0 0.0
2017-Apr-26 16:28N 37°57' E 023°38'0 0.0
2017-Apr-26 15:58N 37°57' E 023°38'0 0.0
2017-Apr-26 15:28N 37°57' E 023°38'0 0.0
2017-Apr-26 14:58N 37°57' E 023°38'0 0.0
2017-Apr-26 14:28N 37°57' E 023°38'0 0.0
2017-Apr-26 13:28N 37°57' E 023°38'0 0.0
2017-Apr-26 12:58N 37°57' E 023°38'0 0.0
2017-Apr-26 12:28N 37°57' E 023°38'0 0.0
2017-Apr-26 11:58N 37°57' E 023°38'0 0.0
2017-Apr-26 11:28N 37°57' E 023°38'0 0.0
2017-Apr-26 10:58N 37°57' E 023°38'0 0.0
2017-Apr-26 10:28N 37°57' E 023°38'0 0.0
2017-Apr-26 09:58N 37°57' E 023°38'0 0.0
2017-Apr-26 09:28N 37°57' E 023°38'0 0.0
2017-Apr-26 08:58N 37°57' E 023°38'0 0.0
2017-Apr-26 08:28N 37°57' E 023°38'0 0.0
2017-Apr-26 07:58N 37°57' E 023°38'0 0.0
2017-Apr-26 07:28N 37°57' E 023°38'0 0.0
2017-Apr-26 06:58N 37°57' E 023°38'0 0.0
2017-Apr-26 06:28N 37°57' E 023°38'0 0.0
2017-Apr-26 05:58N 37°57' E 023°38'0 0.0
2017-Apr-26 05:28N 37°57' E 023°38'0 0.0
2017-Apr-26 04:58N 37°57' E 023°38'0 0.0
2017-Apr-26 04:28N 37°57' E 023°38'0 0.0
2017-Apr-26 03:58N 37°57' E 023°38'1 2.6
2017-Apr-26 03:30N 37°56' E 023°37'816.1
2017-Apr-26 03:01N 37°49' E 023°41'1019.7
2017-Apr-26 02:31N 37°40' E 023°45'1019.8
2017-Apr-26 02:00N 37°30' E 023°50'1019.4
2017-Apr-26 01:30N 37°21' E 023°54'1019.1
2017-Apr-26 01:00N 37°12' E 023°58'1019.5
2017-Apr-26 00:29N 37°03' E 024°03'919.7
2017-Apr-26 00:00N 36°54' E 024°07'1020.0
2017-Apr-25 23:31N 36°45' E 024°12'51 2.3
2017-Apr-25 01:00N 36°00' E 024°42'9119.8 1021.510.8 16.012.717.0
2017-Apr-24 20:25N 37°21' E 023°51'819.1
2017-Apr-24 20:00N 37°28' E 023°47'919.0
2017-Apr-24 19:30N 37°37' E 023°43'918.9
2017-Apr-24 19:01N 37°46' E 023°39'918.3
2017-Apr-24 18:30N 37°55' E 023°37'2 3.6
2017-Apr-24 18:00N 37°57' E 023°38'0 0.0
2017-Apr-24 17:30N 37°57' E 023°38'0 0.0
2017-Apr-24 17:00N 37°57' E 023°38'0 0.0
2017-Apr-24 16:30N 37°57' E 023°38'0 0.0
2017-Apr-24 16:00N 37°57' E 023°38'0 0.0
2017-Apr-24 15:30N 37°57' E 023°38'0 0.0
2017-Apr-24 15:00N 37°57' E 023°38'0 0.0
2017-Apr-24 14:30N 37°57' E 023°38'0 0.0
2017-Apr-24 13:30N 37°57' E 023°38'0 0.0
2017-Apr-24 13:00N 37°57' E 023°38'0 0.0
2017-Apr-24 12:30N 37°57' E 023°38'0 0.0
2017-Apr-24 12:00N 37°57' E 023°38'0 0.0
2017-Apr-24 11:30N 37°57' E 023°38'0 0.0
2017-Apr-24 11:00N 37°57' E 023°38'0 0.0
2017-Apr-24 10:30N 37°57' E 023°38'0 0.0
2017-Apr-24 10:00N 37°57' E 023°38'0 0.0
2017-Apr-24 09:30N 37°57' E 023°38'0 0.0
2017-Apr-24 09:00N 37°57' E 023°38'0 0.0
2017-Apr-24 08:30N 37°57' E 023°38'0 0.0
2017-Apr-24 07:59N 37°57' E 023°38'0 0.0
2017-Apr-24 07:29N 37°57' E 023°38'0 0.0
2017-Apr-24 07:00N 37°57' E 023°38'0 0.0
2017-Apr-24 06:30N 37°57' E 023°38'0 0.0
2017-Apr-24 06:00N 37°57' E 023°38'0 0.0
2017-Apr-24 05:30N 37°57' E 023°38'0 0.0
2017-Apr-24 05:00N 37°57' E 023°38'0 0.0
2017-Apr-24 04:30N 37°57' E 023°38'0 0.0
2017-Apr-24 04:00N 37°57' E 023°38'0 0.3
2017-Apr-24 03:30N 37°57' E 023°38'611.4
2017-Apr-24 03:01N 37°51' E 023°40'1019.2
2017-Apr-24 02:30N 37°42' E 023°45'1019.7
2017-Apr-24 02:00N 37°33' E 023°49'1020.0
2017-Apr-24 01:30N 37°24' E 023°53'1324.7
2017-Apr-24 01:00N 37°12' E 024°00'67 5.5 1019.010.8 16.012.718.0
2017-Apr-23 13:00N 36°12' E 024°36'9124.2 250 / 101018.510.8 16.0 7.818.0
2017-Apr-23 09:13N 37°34' E 023°45'524.9
2017-Apr-23 09:01N 37°39' E 023°43'1224.2
2017-Apr-23 08:31N 37°50' E 023°37'713.3
2017-Apr-23 08:00N 37°57' E 023°38'0 0.0
2017-Apr-23 07:31N 37°57' E 023°38'0 0.0
2017-Apr-23 06:58N 37°57' E 023°38'0 0.0
2017-Apr-23 06:28N 37°57' E 023°38'0 0.0
2017-Apr-23 05:58N 37°57' E 023°38'0 0.0
2017-Apr-23 05:28N 37°57' E 023°38'0 0.0
2017-Apr-23 04:58N 37°57' E 023°38'0 0.0
2017-Apr-23 04:28N 37°57' E 023°38'0 0.0
2017-Apr-23 03:58N 37°57' E 023°38'0 0.1
2017-Apr-23 03:31N 37°57' E 023°38'4 8.1
2017-Apr-23 03:00N 37°53' E 023°38'1020.7
2017-Apr-23 02:30N 37°43' E 023°44'1020.4
2017-Apr-23 02:00N 37°34' E 023°49'1020.7
2017-Apr-23 01:30N 37°24' E 023°54'1325.4
2017-Apr-23 01:00N 37°12' E 024°00'12 0.4 300 / 101015.010.8 13.0 7.412.0
2017-Apr-21 20:19N 37°22' E 023°52'619.8
2017-Apr-21 20:01N 37°28' E 023°49'1019.7
2017-Apr-21 19:30N 37°37' E 023°44'1019.3
2017-Apr-21 19:01N 37°45' E 023°39'918.6
2017-Apr-21 18:31N 37°55' E 023°37'2 4.4
2017-Apr-21 18:00N 37°57' E 023°38'0 0.0
2017-Apr-21 17:30N 37°57' E 023°38'0 0.0
2017-Apr-21 17:00N 37°57' E 023°38'0 0.0
2017-Apr-21 16:30N 37°57' E 023°38'0 0.0
2017-Apr-21 16:00N 37°57' E 023°38'0 0.0
2017-Apr-21 15:30N 37°57' E 023°38'0 0.0
2017-Apr-21 15:00N 37°57' E 023°38'0 0.0
2017-Apr-21 14:30N 37°57' E 023°38'0 0.0
2017-Apr-21 14:00N 37°57' E 023°38'0 0.0
2017-Apr-21 13:30N 37°57' E 023°38'0 0.0
2017-Apr-21 13:00N 37°57' E 023°38'0 0.0
2017-Apr-21 12:30N 37°57' E 023°38'0 0.0
2017-Apr-21 12:00N 37°57' E 023°38'0 0.0
2017-Apr-21 11:30N 37°57' E 023°38'0 0.0
2017-Apr-21 11:00N 37°57' E 023°38'0 0.0
2017-Apr-21 10:30N 37°57' E 023°38'0 0.0
2017-Apr-21 10:00N 37°57' E 023°38'0 0.0
2017-Apr-21 09:30N 37°57' E 023°38'0 0.0
2017-Apr-21 09:00N 37°57' E 023°38'0 0.0
2017-Apr-21 08:30N 37°57' E 023°38'0 0.0
2017-Apr-21 08:00N 37°57' E 023°38'0 0.0
2017-Apr-21 07:30N 37°57' E 023°38'0 0.0
2017-Apr-21 07:00N 37°57' E 023°38'0 0.0
2017-Apr-21 06:27N 37°57' E 023°38'0 0.0
2017-Apr-21 06:00N 37°57' E 023°38'0 0.0
2017-Apr-21 05:30N 37°57' E 023°38'0 0.0
2017-Apr-21 05:00N 37°57' E 023°38'0 0.0
2017-Apr-21 04:30N 37°57' E 023°38'0 0.0
2017-Apr-21 04:00N 37°57' E 023°38'0 0.0
2017-Apr-21 03:30N 37°57' E 023°38'3 5.8
2017-Apr-21 03:01N 37°54' E 023°38'1020.0
2017-Apr-21 02:30N 37°45' E 023°44'1020.0
2017-Apr-21 02:00N 37°36' E 023°48'1019.9
2017-Apr-21 01:29N 37°26' E 023°52'3 0.1
2017-Apr-19 20:08N 37°27' E 023°49'719.9
2017-Apr-19 19:46N 37°34' E 023°46'519.1
2017-Apr-19 19:30N 37°39' E 023°43'1019.3
2017-Apr-19 19:00N 37°47' E 023°38'917.2
2017-Apr-19 18:31N 37°56' E 023°37'1 2.3
2017-Apr-19 18:00N 37°57' E 023°38'0 0.0
2017-Apr-19 17:30N 37°57' E 023°38'0 0.0
2017-Apr-19 16:59N 37°57' E 023°38'0 0.0
2017-Apr-19 16:29N 37°57' E 023°38'0 0.0
2017-Apr-19 15:59N 37°57' E 023°38'0 0.0
2017-Apr-19 15:29N 37°57' E 023°38'0 0.0
2017-Apr-19 14:59N 37°57' E 023°38'0 0.0
2017-Apr-19 14:29N 37°57' E 023°38'0 0.0
2017-Apr-19 13:29N 37°57' E 023°38'0 0.0
2017-Apr-19 12:59N 37°57' E 023°38'0 0.0
2017-Apr-19 12:29N 37°57' E 023°38'0 0.0
2017-Apr-19 11:59N 37°57' E 023°38'0 0.0
2017-Apr-19 11:29N 37°57' E 023°38'0 0.0
2017-Apr-19 10:38N 37°57' E 023°38'0 0.0
2017-Apr-19 10:29N 37°57' E 023°38'0 0.0
2017-Apr-19 09:15N 37°57' E 023°38'0 0.0
2017-Apr-19 09:00N 37°57' E 023°38'0 0.0
2017-Apr-19 08:30N 37°57' E 023°38'0 0.0
2017-Apr-19 08:00N 37°57' E 023°38'0 0.0
2017-Apr-19 07:30N 37°57' E 023°38'0 0.0
2017-Apr-19 07:00N 37°57' E 023°38'0 0.0
2017-Apr-19 06:30N 37°57' E 023°38'0 0.0
2017-Apr-19 06:00N 37°57' E 023°38'0 0.0
2017-Apr-19 05:30N 37°57' E 023°38'0 0.0
2017-Apr-19 05:00N 37°57' E 023°38'0 0.0
2017-Apr-19 04:30N 37°57' E 023°38'0 0.0
2017-Apr-19 04:00N 37°57' E 023°38'0 0.0
2017-Apr-19 03:31N 37°57' E 023°38'4 7.9
2017-Apr-19 03:01N 37°53' E 023°38'1020.6
2017-Apr-19 02:31N 37°44' E 023°44'1120.7
2017-Apr-19 02:00N 37°34' E 023°49'1020.7
2017-Apr-19 01:31N 37°24' E 023°53'80 6.4
2017-Apr-18 13:00N 36°12' E 024°36'9224.2 240 / 101014.510.8 20.017.717.0
2017-Apr-18 09:12N 37°34' E 023°45'525.3
2017-Apr-18 09:01N 37°39' E 023°43'1425.0
2017-Apr-18 08:27N 37°52' E 023°37'510.7
2017-Apr-18 08:00N 37°57' E 023°38'0 0.0
2017-Apr-18 07:30N 37°57' E 023°38'0 0.0
2017-Apr-18 06:58N 37°57' E 023°38'0 0.0
2017-Apr-18 06:28N 37°57' E 023°38'0 0.0
2017-Apr-18 05:58N 37°57' E 023°38'0 0.0
2017-Apr-18 05:29N 37°57' E 023°38'0 0.0
2017-Apr-18 05:00N 37°57' E 023°38'0 0.0
2017-Apr-18 04:30N 37°57' E 023°38'0 0.0
2017-Apr-18 04:00N 37°57' E 023°38'0 0.0
2017-Apr-18 03:31N 37°57' E 023°38'5 9.4
2017-Apr-18 03:01N 37°52' E 023°39'1019.7
2017-Apr-18 02:31N 37°43' E 023°43'1020.3
2017-Apr-18 02:01N 37°33' E 023°48'1220.6
2017-Apr-18 01:27N 37°22' E 023°53'  
Track history (hours):
 
Tides and Currents Weather Stations Pressure Air Temp Water Temp Dewpoint Dewpoint Depression Visibility Wind Speed Wind Dir Waves Ship Positions

Knossos Palace

Last reported at 2017-Apr-27 01:00 UTC. Time now 2017-Apr-27 18:54 UTC.
Position N 36°00' E 024°42'.

Length 214 m; beam 26.4 m; draft 7.3 m.

Type: Ship. MMSI: 237641000.

Wind at 5 knots

Barometer 1018.5 mb
Air temperature 17.0 ° C
Visibility: greater than 10.8 NM
Dewpoint 16.2 ° C
Water temperature 18.0 ° C

Date/timePositionNaut miles runAvg speedWind from/ knotsBaromVisibWave heightAir tempDewpointWater temp
2017-Apr-27 01:00N 36°00' E 024°42'6519.5 1018.510.8 17.016.218.0
2017-Apr-26 21:39N 36°58' E 024°04'1819.2
2017-Apr-26 20:44N 37°14' E 023°56'519.9
2017-Apr-26 20:30N 37°18' E 023°53'1019.7
2017-Apr-26 20:01N 37°27' E 023°49'1019.0
2017-Apr-26 19:30N 37°36' E 023°44'1019.4
2017-Apr-26 19:01N 37°45' E 023°39'816.5
2017-Apr-26 18:31N 37°53' E 023°37'4 7.9
2017-Apr-26 18:00N 37°57' E 023°38'0 0.0
2017-Apr-26 17:30N 37°57' E 023°38'0 0.0
2017-Apr-26 16:58N 37°57' E 023°38'0 0.0
2017-Apr-26 16:28N 37°57' E 023°38'0 0.0
2017-Apr-26 15:58N 37°57' E 023°38'0 0.0
2017-Apr-26 15:28N 37°57' E 023°38'0 0.0
2017-Apr-26 14:58N 37°57' E 023°38'0 0.0
2017-Apr-26 14:28N 37°57' E 023°38'0 0.0
2017-Apr-26 13:28N 37°57' E 023°38'0 0.0
2017-Apr-26 12:58N 37°57' E 023°38'0 0.0
2017-Apr-26 12:28N 37°57' E 023°38'0 0.0
2017-Apr-26 11:58N 37°57' E 023°38'0 0.0
2017-Apr-26 11:28N 37°57' E 023°38'0 0.0
2017-Apr-26 10:58N 37°57' E 023°38'0 0.0
2017-Apr-26 10:28N 37°57' E 023°38'0 0.0
2017-Apr-26 09:58N 37°57' E 023°38'0 0.0
2017-Apr-26 09:28N 37°57' E 023°38'0 0.0
2017-Apr-26 08:58N 37°57' E 023°38'0 0.0
2017-Apr-26 08:28N 37°57' E 023°38'0 0.0
2017-Apr-26 07:58N 37°57' E 023°38'0 0.0
2017-Apr-26 07:28N 37°57' E 023°38'0 0.0
2017-Apr-26 06:58N 37°57' E 023°38'0 0.0
2017-Apr-26 06:28N 37°57' E 023°38'0 0.0
2017-Apr-26 05:58N 37°57' E 023°38'0 0.0
2017-Apr-26 05:28N 37°57' E 023°38'0 0.0
2017-Apr-26 04:58N 37°57' E 023°38'0 0.0
2017-Apr-26 04:28N 37°57' E 023°38'0 0.0
2017-Apr-26 03:58N 37°57' E 023°38'1 2.6
2017-Apr-26 03:30N 37°56' E 023°37'816.1
2017-Apr-26 03:01N 37°49' E 023°41'1019.7
2017-Apr-26 02:31N 37°40' E 023°45'1019.8
2017-Apr-26 02:00N 37°30' E 023°50'1019.4
2017-Apr-26 01:30N 37°21' E 023°54'1019.1
2017-Apr-26 01:00N 37°12' E 023°58'1019.5
2017-Apr-26 00:29N 37°03' E 024°03'919.7
2017-Apr-26 00:00N 36°54' E 024°07'1020.0
2017-Apr-25 23:31N 36°45' E 024°12'51 2.3
2017-Apr-25 01:00N 36°00' E 024°42'9119.8 1021.510.8 16.012.717.0
2017-Apr-24 20:25N 37°21' E 023°51'819.1
2017-Apr-24 20:00N 37°28' E 023°47'919.0
2017-Apr-24 19:30N 37°37' E 023°43'918.9
2017-Apr-24 19:01N 37°46' E 023°39'918.3
2017-Apr-24 18:30N 37°55' E 023°37'2 3.6
2017-Apr-24 18:00N 37°57' E 023°38'0 0.0
2017-Apr-24 17:30N 37°57' E 023°38'0 0.0
2017-Apr-24 17:00N 37°57' E 023°38'0 0.0
2017-Apr-24 16:30N 37°57' E 023°38'0 0.0
2017-Apr-24 16:00N 37°57' E 023°38'0 0.0
2017-Apr-24 15:30N 37°57' E 023°38'0 0.0
2017-Apr-24 15:00N 37°57' E 023°38'0 0.0
2017-Apr-24 14:30N 37°57' E 023°38'0 0.0
2017-Apr-24 13:30N 37°57' E 023°38'0 0.0
2017-Apr-24 13:00N 37°57' E 023°38'0 0.0
2017-Apr-24 12:30N 37°57' E 023°38'0 0.0
2017-Apr-24 12:00N 37°57' E 023°38'0 0.0
2017-Apr-24 11:30N 37°57' E 023°38'0 0.0
2017-Apr-24 11:00N 37°57' E 023°38'0 0.0
2017-Apr-24 10:30N 37°57' E 023°38'0 0.0
2017-Apr-24 10:00N 37°57' E 023°38'0 0.0
2017-Apr-24 09:30N 37°57' E 023°38'0 0.0
2017-Apr-24 09:00N 37°57' E 023°38'0 0.0
2017-Apr-24 08:30N 37°57' E 023°38'0 0.0
2017-Apr-24 07:59N 37°57' E 023°38'0 0.0
2017-Apr-24 07:29N 37°57' E 023°38'0 0.0
2017-Apr-24 07:00N 37°57' E 023°38'0 0.0
2017-Apr-24 06:30N 37°57' E 023°38'0 0.0
2017-Apr-24 06:00N 37°57' E 023°38'0 0.0
2017-Apr-24 05:30N 37°57' E 023°38'0 0.0
2017-Apr-24 05:00N 37°57' E 023°38'0 0.0
2017-Apr-24 04:30N 37°57' E 023°38'0 0.0
2017-Apr-24 04:00N 37°57' E 023°38'0 0.3
2017-Apr-24 03:30N 37°57' E 023°38'611.4
2017-Apr-24 03:01N 37°51' E 023°40'1019.2
2017-Apr-24 02:30N 37°42' E 023°45'1019.7
2017-Apr-24 02:00N 37°33' E 023°49'1020.0
2017-Apr-24 01:30N 37°24' E 023°53'1324.7
2017-Apr-24 01:00N 37°12' E 024°00'67 5.5 1019.010.8 16.012.718.0
2017-Apr-23 13:00N 36°12' E 024°36'9124.2 250 / 101018.510.8 16.0 7.818.0
2017-Apr-23 09:13N 37°34' E 023°45'524.9
2017-Apr-23 09:01N 37°39' E 023°43'1224.2
2017-Apr-23 08:31N 37°50' E 023°37'713.3
2017-Apr-23 08:00N 37°57' E 023°38'0 0.0
2017-Apr-23 07:31N 37°57' E 023°38'0 0.0
2017-Apr-23 06:58N 37°57' E 023°38'0 0.0
2017-Apr-23 06:28N 37°57' E 023°38'0 0.0
2017-Apr-23 05:58N 37°57' E 023°38'0 0.0
2017-Apr-23 05:28N 37°57' E 023°38'0 0.0
2017-Apr-23 04:58N 37°57' E 023°38'0 0.0
2017-Apr-23 04:28N 37°57' E 023°38'0 0.0
2017-Apr-23 03:58N 37°57' E 023°38'0 0.1
2017-Apr-23 03:31N 37°57' E 023°38'4 8.1
2017-Apr-23 03:00N 37°53' E 023°38'1020.7
2017-Apr-23 02:30N 37°43' E 023°44'1020.4
2017-Apr-23 02:00N 37°34' E 023°49'1020.7
2017-Apr-23 01:30N 37°24' E 023°54'1325.4
2017-Apr-23 01:00N 37°12' E 024°00'12 0.4 300 / 101015.010.8 13.0 7.412.0
2017-Apr-21 20:19N 37°22' E 023°52'619.8
2017-Apr-21 20:01N 37°28' E 023°49'1019.7
2017-Apr-21 19:30N 37°37' E 023°44'1019.3
2017-Apr-21 19:01N 37°45' E 023°39'918.6
2017-Apr-21 18:31N 37°55' E 023°37'2 4.4
2017-Apr-21 18:00N 37°57' E 023°38'0 0.0
2017-Apr-21 17:30N 37°57' E 023°38'0 0.0
2017-Apr-21 17:00N 37°57' E 023°38'0 0.0
2017-Apr-21 16:30N 37°57' E 023°38'0 0.0
2017-Apr-21 16:00N 37°57' E 023°38'0 0.0
2017-Apr-21 15:30N 37°57' E 023°38'0 0.0
2017-Apr-21 15:00N 37°57' E 023°38'0 0.0
2017-Apr-21 14:30N 37°57' E 023°38'0 0.0
2017-Apr-21 14:00N 37°57' E 023°38'0 0.0
2017-Apr-21 13:30N 37°57' E 023°38'0 0.0
2017-Apr-21 13:00N 37°57' E 023°38'0 0.0
2017-Apr-21 12:30N 37°57' E 023°38'0 0.0
2017-Apr-21 12:00N 37°57' E 023°38'0 0.0
2017-Apr-21 11:30N 37°57' E 023°38'0 0.0
2017-Apr-21 11:00N 37°57' E 023°38'0 0.0
2017-Apr-21 10:30N 37°57' E 023°38'0 0.0
2017-Apr-21 10:00N 37°57' E 023°38'0 0.0
2017-Apr-21 09:30N 37°57' E 023°38'0 0.0
2017-Apr-21 09:00N 37°57' E 023°38'0 0.0
2017-Apr-21 08:30N 37°57' E 023°38'0 0.0
2017-Apr-21 08:00N 37°57' E 023°38'0 0.0
2017-Apr-21 07:30N 37°57' E 023°38'0 0.0
2017-Apr-21 07:00N 37°57' E 023°38'0 0.0
2017-Apr-21 06:27N 37°57' E 023°38'0 0.0
2017-Apr-21 06:00N 37°57' E 023°38'0 0.0
2017-Apr-21 05:30N 37°57' E 023°38'0 0.0
2017-Apr-21 05:00N 37°57' E 023°38'0 0.0
2017-Apr-21 04:30N 37°57' E 023°38'0 0.0
2017-Apr-21 04:00N 37°57' E 023°38'0 0.0
2017-Apr-21 03:30N 37°57' E 023°38'3 5.8
2017-Apr-21 03:01N 37°54' E 023°38'1020.0
2017-Apr-21 02:30N 37°45' E 023°44'1020.0
2017-Apr-21 02:00N 37°36' E 023°48'1019.9
2017-Apr-21 01:29N 37°26' E 023°52'3 0.1
2017-Apr-19 20:08N 37°27' E 023°49'719.9
2017-Apr-19 19:46N 37°34' E 023°46'519.1
2017-Apr-19 19:30N 37°39' E 023°43'1019.3
2017-Apr-19 19:00N 37°47' E 023°38'917.2
2017-Apr-19 18:31N 37°56' E 023°37'1 2.3
2017-Apr-19 18:00N 37°57' E 023°38'0 0.0
2017-Apr-19 17:30N 37°57' E 023°38'0 0.0
2017-Apr-19 16:59N 37°57' E 023°38'0 0.0
2017-Apr-19 16:29N 37°57' E 023°38'0 0.0
2017-Apr-19 15:59N 37°57' E 023°38'0 0.0
2017-Apr-19 15:29N 37°57' E 023°38'0 0.0
2017-Apr-19 14:59N 37°57' E 023°38'0 0.0
2017-Apr-19 14:29N 37°57' E 023°38'0 0.0
2017-Apr-19 13:29N 37°57' E 023°38'0 0.0
2017-Apr-19 12:59N 37°57' E 023°38'0 0.0
2017-Apr-19 12:29N 37°57' E 023°38'0 0.0
2017-Apr-19 11:59N 37°57' E 023°38'0 0.0
2017-Apr-19 11:29N 37°57' E 023°38'0 0.0
2017-Apr-19 10:38N 37°57' E 023°38'0 0.0
2017-Apr-19 10:29N 37°57' E 023°38'0 0.0
2017-Apr-19 09:15N 37°57' E 023°38'0 0.0
2017-Apr-19 09:00N 37°57' E 023°38'0 0.0
2017-Apr-19 08:30N 37°57' E 023°38'0 0.0
2017-Apr-19 08:00N 37°57' E 023°38'0 0.0
2017-Apr-19 07:30N 37°57' E 023°38'0 0.0
2017-Apr-19 07:00N 37°57' E 023°38'0 0.0
2017-Apr-19 06:30N 37°57' E 023°38'0 0.0
2017-Apr-19 06:00N 37°57' E 023°38'0 0.0
2017-Apr-19 05:30N 37°57' E 023°38'0 0.0
2017-Apr-19 05:00N 37°57' E 023°38'0 0.0
2017-Apr-19 04:30N 37°57' E 023°38'0 0.0
2017-Apr-19 04:00N 37°57' E 023°38'0 0.0
2017-Apr-19 03:31N 37°57' E 023°38'4 7.9
2017-Apr-19 03:01N 37°53' E 023°38'1020.6
2017-Apr-19 02:31N 37°44' E 023°44'1120.7
2017-Apr-19 02:00N 37°34' E 023°49'1020.7
2017-Apr-19 01:31N 37°24' E 023°53'80 6.4
2017-Apr-18 13:00N 36°12' E 024°36'9224.2 240 / 101014.510.8 20.017.717.0
2017-Apr-18 09:12N 37°34' E 023°45'525.3
2017-Apr-18 09:01N 37°39' E 023°43'1425.0
2017-Apr-18 08:27N 37°52' E 023°37'510.7
2017-Apr-18 08:00N 37°57' E 023°38'0 0.0
2017-Apr-18 07:30N 37°57' E 023°38'0 0.0
2017-Apr-18 06:58N 37°57' E 023°38'0 0.0
2017-Apr-18 06:28N 37°57' E 023°38'0 0.0
2017-Apr-18 05:58N 37°57' E 023°38'0 0.0
2017-Apr-18 05:29N 37°57' E 023°38'0 0.0
2017-Apr-18 05:00N 37°57' E 023°38'0 0.0
2017-Apr-18 04:30N 37°57' E 023°38'0 0.0
2017-Apr-18 04:00N 37°57' E 023°38'0 0.0
2017-Apr-18 03:31N 37°57' E 023°38'5 9.4
2017-Apr-18 03:01N 37°52' E 023°39'1019.7
2017-Apr-18 02:31N 37°43' E 023°43'1020.3
2017-Apr-18 02:01N 37°33' E 023°48'1220.6
2017-Apr-18 01:27N 37°22' E 023°53'  

Dump ship's entire track history